createdAt,value
2022-10-23T00:01:21.731Z,6.80
2022-10-23T00:03:52.195Z,9.33
2022-10-23T00:06:19.552Z,7.20
2022-10-23T00:08:47.958Z,6.30
2022-10-23T00:11:17.463Z,6.00
2022-10-23T00:13:44.686Z,7.53
2022-10-23T00:16:11.423Z,7.97
2022-10-23T00:18:39.102Z,8.03
2022-10-23T00:21:08.198Z,7.60
2022-10-23T00:23:35.748Z,5.90
2022-10-23T00:26:02.881Z,5.10
2022-10-23T00:28:29.562Z,16.30
2022-10-23T00:30:56.495Z,14.40
2022-10-23T00:33:23.154Z,6.80
2022-10-23T00:35:49.839Z,7.33
2022-10-23T00:38:16.577Z,10.50
2022-10-23T00:40:45.253Z,10.07
2022-10-23T00:43:24.749Z,20.40
2022-10-23T00:45:52.030Z,30.53
2022-10-23T00:48:18.943Z,23.40
2022-10-23T00:50:47.691Z,21.43
2022-10-23T00:53:16.919Z,15.90
2022-10-23T00:55:46.854Z,24.80
2022-10-23T00:58:15.060Z,15.30
2022-10-23T01:00:48.681Z,14.10
2022-10-23T01:03:17.342Z,16.13
2022-10-23T01:06:05.222Z,12.27
2022-10-23T01:08:49.979Z,20.17
2022-10-23T01:11:45.944Z,18.47
2022-10-23T01:14:19.144Z,27.20
2022-10-23T01:17:19.538Z,14.23
2022-10-23T01:20:20.974Z,23.83
2022-10-23T01:22:56.709Z,24.80
2022-10-23T01:25:41.674Z,30.37
2022-10-23T01:28:20.568Z,27.43
2022-10-23T01:30:48.484Z,23.77
2022-10-23T01:33:29.232Z,25.40
2022-10-23T01:36:06.739Z,24.47
2022-10-23T01:39:01.328Z,19.07
2022-10-23T01:41:28.199Z,12.87
2022-10-23T01:43:57.059Z,15.47
2022-10-23T01:46:27.998Z,33.13
2022-10-23T01:48:57.646Z,10.90
2022-10-23T01:51:27.408Z,17.00
2022-10-23T01:53:59.889Z,11.80
2022-10-23T01:56:32.091Z,12.10
2022-10-23T01:59:04.126Z,14.03
2022-10-23T02:01:39.672Z,21.40
2022-10-23T02:04:10.284Z,13.70
2022-10-23T02:06:36.946Z,12.03
2022-10-23T02:09:04.572Z,18.77
2022-10-23T02:11:37.221Z,17.47
2022-10-23T02:14:20.705Z,12.23
2022-10-23T02:16:50.969Z,14.93
2022-10-23T02:19:36.518Z,19.70
2022-10-23T02:22:14.317Z,20.23
2022-10-23T02:24:50.936Z,19.20
2022-10-23T02:27:23.884Z,20.37
2022-10-23T02:30:17.003Z,23.47
2022-10-23T02:32:53.500Z,22.27
2022-10-23T02:35:23.118Z,13.70
2022-10-23T02:37:58.140Z,16.23
2022-10-23T02:40:40.667Z,15.27
2022-10-23T02:43:13.860Z,13.70
2022-10-23T02:45:54.051Z,13.90
2022-10-23T02:48:26.310Z,16.93
2022-10-23T02:51:07.429Z,27.57
2022-10-23T02:53:53.368Z,22.80
2022-10-23T02:56:36.649Z,20.90
2022-10-23T02:59:32.406Z,35.07
2022-10-23T03:02:18.142Z,38.57
2022-10-23T03:04:46.319Z,25.67
2022-10-23T03:07:14.341Z,25.40
2022-10-23T03:09:42.461Z,22.53
2022-10-23T03:12:09.132Z,25.50
2022-10-23T03:14:36.790Z,20.03
2022-10-23T03:17:04.592Z,25.37
2022-10-23T03:19:31.198Z,20.87
2022-10-23T03:21:58.546Z,21.40
2022-10-23T03:24:25.389Z,28.10
2022-10-23T03:26:52.182Z,21.17
2022-10-23T03:29:27.568Z,20.60
2022-10-23T03:31:55.795Z,21.63
2022-10-23T03:34:22.474Z,19.10
2022-10-23T03:36:49.102Z,18.60
2022-10-23T03:39:18.718Z,16.23
2022-10-23T03:41:45.473Z,22.43
2022-10-23T03:44:14.651Z,13.20
2022-10-23T03:46:44.412Z,18.33
2022-10-23T03:49:10.991Z,16.73
2022-10-23T03:51:41.554Z,15.33
2022-10-23T03:54:08.639Z,16.00
2022-10-23T03:56:35.995Z,18.80
2022-10-23T03:59:02.615Z,15.60
2022-10-23T04:01:29.325Z,14.53
2022-10-23T04:03:56.087Z,20.70
2022-10-23T04:06:25.063Z,18.70
2022-10-23T04:08:55.702Z,16.70
2022-10-23T04:11:22.357Z,21.73
2022-10-23T04:13:49.115Z,27.30
2022-10-23T04:16:16.059Z,26.70
2022-10-23T04:18:44.423Z,28.13
2022-10-23T04:21:11.794Z,23.20
2022-10-23T04:23:38.935Z,20.80
2022-10-23T04:26:11.180Z,19.33
2022-10-23T04:28:38.043Z,12.40
2022-10-23T04:31:04.763Z,13.93
2022-10-23T04:33:31.402Z,10.00
2022-10-23T04:35:58.133Z,20.77
2022-10-23T04:38:26.117Z,17.93
2022-10-23T04:40:52.793Z,22.13
2022-10-23T04:43:22.705Z,22.77
2022-10-23T04:45:50.208Z,18.60
2022-10-23T04:48:16.883Z,14.37
2022-10-23T04:51:10.552Z,10.43
2022-10-23T04:54:12.586Z,13.27
2022-10-23T04:56:42.048Z,26.23
2022-10-23T04:59:13.662Z,15.87
2022-10-23T05:01:41.122Z,12.57
2022-10-23T05:04:09.282Z,15.63
2022-10-23T05:06:58.709Z,11.43
2022-10-23T05:09:51.678Z,11.53
2022-10-23T05:12:41.367Z,11.40
2022-10-23T05:15:08.301Z,13.73
2022-10-23T05:17:37.555Z,10.40
2022-10-23T05:20:26.653Z,13.27
2022-10-23T05:22:56.902Z,11.50
2022-10-23T05:25:24.785Z,11.57
2022-10-23T05:27:59.863Z,11.23
2022-10-23T05:30:26.679Z,10.30
2022-10-23T05:32:54.626Z,12.50
2022-10-23T05:35:24.472Z,11.07
2022-10-23T05:37:54.543Z,14.73
2022-10-23T05:40:24.071Z,9.67
2022-10-23T05:42:56.538Z,13.73
2022-10-23T05:45:34.376Z,11.30
2022-10-23T05:48:35.174Z,13.70
2022-10-23T05:51:23.063Z,11.57
2022-10-23T05:54:16.075Z,11.17
2022-10-23T05:56:57.952Z,12.03
2022-10-23T05:59:57.067Z,14.33
2022-10-23T06:02:26.718Z,10.73
2022-10-23T06:05:00.126Z,13.10
2022-10-23T06:07:30.187Z,12.43
2022-10-23T06:10:00.449Z,11.10
2022-10-23T06:12:27.266Z,15.07
2022-10-23T06:14:54.167Z,11.27
2022-10-23T06:17:28.023Z,14.03
2022-10-23T06:20:00.709Z,11.90
2022-10-23T06:22:27.972Z,13.73
2022-10-23T06:25:04.582Z,14.17
2022-10-23T06:27:31.374Z,14.90
2022-10-23T06:29:58.025Z,14.80
2022-10-23T06:32:24.737Z,20.30
2022-10-23T06:35:07.401Z,16.30
2022-10-23T06:37:34.561Z,15.30
2022-10-23T06:40:22.033Z,16.57
2022-10-23T06:42:57.232Z,19.03
2022-10-23T06:45:46.163Z,16.67
2022-10-23T06:48:12.786Z,21.77
2022-10-23T06:50:58.880Z,19.33
2022-10-23T06:53:35.988Z,20.80
2022-10-23T06:56:12.045Z,15.77
2022-10-23T06:58:40.500Z,17.73
2022-10-23T07:01:14.612Z,15.10
2022-10-23T07:03:42.783Z,18.30
2022-10-23T07:06:10.698Z,17.67
2022-10-23T07:08:38.424Z,18.60
2022-10-23T07:11:18.071Z,18.40
2022-10-23T07:13:47.285Z,17.70
2022-10-23T07:16:19.602Z,17.17
2022-10-23T07:18:47.190Z,21.33
2022-10-23T07:21:31.188Z,22.30
2022-10-23T07:24:15.461Z,21.63
2022-10-23T07:26:42.514Z,17.67
2022-10-23T07:29:10.139Z,17.60
2022-10-23T07:31:36.926Z,17.30
2022-10-23T07:34:22.145Z,21.07
2022-10-23T07:37:00.318Z,17.63
2022-10-23T07:39:27.154Z,19.93
2022-10-23T07:41:53.808Z,19.30
2022-10-23T07:44:22.091Z,18.33
2022-10-23T07:46:51.166Z,20.57
2022-10-23T07:49:17.926Z,17.03
2022-10-23T07:51:49.020Z,19.30
2022-10-23T07:54:18.862Z,19.50
2022-10-23T07:56:48.287Z,20.03
2022-10-23T07:59:24.084Z,22.87
2022-10-23T08:01:57.804Z,16.07
2022-10-23T08:04:30.726Z,17.00
2022-10-23T08:07:07.621Z,19.17
2022-10-23T08:09:39.616Z,20.23
2022-10-23T08:12:07.815Z,19.40
2022-10-23T08:14:34.452Z,17.40
2022-10-23T08:19:54.872Z,18.37
2022-10-23T08:22:21.827Z,23.50
2022-10-23T08:24:48.530Z,21.63
2022-10-23T08:27:15.896Z,25.47
2022-10-23T08:29:45.591Z,32.60
2022-10-23T08:32:12.388Z,25.37
2022-10-23T08:34:54.364Z,28.30
2022-10-23T08:37:23.634Z,29.20
2022-10-23T08:39:52.651Z,23.20
2022-10-23T08:42:27.490Z,26.90
2022-10-23T08:45:36.677Z,25.00
2022-10-23T08:48:21.252Z,25.23
2022-10-23T08:51:34.659Z,22.50
2022-10-23T08:54:28.098Z,22.80
2022-10-23T08:57:02.641Z,22.37
2022-10-23T08:59:40.544Z,18.83
2022-10-23T09:03:01.378Z,20.53
2022-10-23T09:05:32.956Z,18.80
2022-10-23T09:08:18.483Z,20.83
2022-10-23T09:10:57.210Z,18.03
2022-10-23T09:13:29.969Z,17.53
2022-10-23T09:16:13.336Z,20.50
2022-10-23T09:18:41.899Z,17.13
2022-10-23T09:21:09.913Z,19.03
2022-10-23T09:23:36.874Z,17.07
2022-10-23T09:26:13.066Z,18.83
2022-10-23T09:28:49.276Z,19.33
2022-10-23T09:31:17.051Z,17.00
2022-10-23T09:34:01.224Z,17.70
2022-10-23T09:36:29.439Z,19.13
2022-10-23T09:38:59.038Z,19.53
2022-10-23T09:41:28.681Z,20.20
2022-10-23T09:44:01.073Z,28.43
2022-10-23T09:46:38.705Z,18.30
2022-10-23T09:49:05.990Z,21.30
2022-10-23T09:51:32.894Z,18.60
2022-10-23T09:54:01.200Z,20.20
2022-10-23T09:56:40.012Z,15.93
2022-10-23T09:59:31.066Z,14.97
2022-10-23T10:02:00.890Z,15.43
2022-10-23T10:04:41.508Z,13.47
2022-10-23T10:07:24.417Z,11.07
2022-10-23T10:09:53.162Z,12.57
2022-10-23T10:12:32.846Z,12.43
2022-10-23T10:15:22.398Z,10.57
2022-10-23T10:18:10.773Z,16.70
2022-10-23T10:20:43.164Z,10.17
2022-10-23T10:23:12.898Z,10.83
2022-10-23T10:25:54.716Z,10.07
2022-10-23T10:28:45.707Z,9.50
2022-10-23T10:31:37.228Z,7.27
2022-10-23T10:34:07.077Z,7.53
2022-10-23T10:37:01.647Z,7.60
2022-10-23T10:39:38.405Z,6.33
2022-10-23T10:42:24.754Z,6.70
2022-10-23T10:45:14.533Z,7.23
2022-10-23T10:47:51.741Z,8.60
2022-10-23T10:50:51.507Z,5.43
2022-10-23T10:53:44.365Z,5.17
2022-10-23T10:56:17.690Z,3.03
2022-10-23T10:58:47.358Z,2.90
2022-10-23T11:01:29.338Z,4.57
2022-10-23T11:04:11.860Z,3.83
2022-10-23T11:06:38.824Z,3.97
2022-10-23T11:09:21.032Z,3.13
2022-10-23T11:11:49.203Z,2.60
2022-10-23T11:14:22.195Z,4.13
2022-10-23T11:16:58.393Z,2.60
2022-10-23T11:19:34.591Z,3.63
2022-10-23T11:22:06.671Z,2.93
2022-10-23T11:24:48.153Z,2.97
2022-10-23T11:27:19.306Z,3.93
2022-10-23T11:30:17.161Z,2.37
2022-10-23T11:33:01.992Z,8.13
2022-10-23T11:35:41.313Z,2.10
2022-10-23T11:38:37.321Z,2.13
2022-10-23T11:41:07.153Z,2.60
2022-10-23T11:44:01.591Z,2.03
2022-10-23T11:46:32.582Z,2.90
2022-10-23T11:49:02.534Z,1.53
2022-10-23T11:51:29.238Z,1.87
2022-10-23T11:54:24.937Z,2.30
2022-10-23T11:57:11.274Z,11.03
2022-10-23T11:59:50.098Z,2.40
2022-10-23T12:02:36.779Z,1.60
2022-10-23T12:05:29.569Z,1.30
2022-10-23T12:07:58.771Z,1.60
2022-10-23T12:10:45.970Z,1.87
2022-10-23T12:13:45.644Z,3.80
2022-10-23T12:16:13.259Z,1.93
2022-10-23T12:18:51.823Z,4.10
2022-10-23T12:21:21.795Z,1.60
2022-10-23T12:23:54.665Z,1.53
2022-10-23T12:26:21.266Z,1.57
2022-10-23T12:29:18.951Z,1.80
2022-10-23T12:32:03.904Z,2.10
2022-10-23T12:34:54.473Z,1.30
2022-10-23T12:37:27.203Z,1.50
2022-10-23T12:39:56.061Z,1.77
2022-10-23T12:42:25.209Z,2.50
2022-10-23T12:45:44.450Z,1.43
2022-10-23T12:48:20.934Z,1.80
2022-10-23T12:50:53.739Z,1.30
2022-10-23T12:53:22.934Z,2.63
2022-10-23T12:56:13.075Z,2.00
2022-10-23T12:58:50.072Z,2.00
2022-10-23T13:01:31.595Z,3.03
2022-10-23T13:04:33.281Z,3.87
2022-10-23T13:07:02.870Z,1.67
2022-10-23T13:09:38.204Z,4.30
2022-10-23T13:12:30.732Z,1.80
2022-10-23T13:15:03.436Z,1.97
2022-10-23T13:17:59.240Z,1.50
2022-10-23T13:20:28.399Z,7.07
2022-10-23T13:23:18.129Z,6.67
2022-10-23T13:26:01.050Z,3.23
2022-10-23T13:28:31.686Z,4.13
2022-10-23T13:31:04.193Z,3.03
2022-10-23T13:33:43.164Z,2.30
2022-10-23T13:36:16.662Z,1.97
2022-10-23T13:38:46.186Z,2.50
2022-10-23T13:41:16.587Z,1.50
2022-10-23T13:43:44.380Z,3.13
2022-10-23T13:46:14.969Z,1.73
2022-10-23T13:48:41.599Z,1.53
2022-10-23T13:51:15.879Z,1.80
2022-10-23T13:53:42.504Z,3.60
2022-10-23T13:56:12.863Z,2.90
2022-10-23T13:58:39.906Z,2.30
2022-10-23T14:01:12.367Z,1.33
2022-10-23T14:03:39.036Z,4.00
2022-10-23T14:06:06.075Z,2.43
2022-10-23T14:08:32.684Z,1.63
2022-10-23T14:10:59.303Z,2.60
2022-10-23T14:13:25.900Z,3.83
2022-10-23T14:15:56.370Z,2.33
2022-10-23T14:18:23.318Z,1.93
2022-10-23T14:20:50.378Z,2.07
2022-10-23T14:23:17.010Z,2.00
2022-10-23T14:25:43.759Z,3.10
2022-10-23T14:28:10.385Z,1.80
2022-10-23T14:30:37.712Z,5.40
2022-10-23T14:33:05.028Z,2.50
2022-10-23T14:35:31.698Z,1.80
2022-10-23T14:37:58.648Z,1.97
2022-10-23T14:40:25.446Z,3.30
2022-10-23T14:42:52.145Z,2.50
2022-10-23T14:45:18.845Z,2.10
2022-10-23T14:47:46.328Z,4.83
2022-10-23T14:50:13.818Z,2.17
2022-10-23T14:52:40.508Z,2.30
2022-10-23T14:55:07.664Z,5.13
2022-10-23T14:57:34.314Z,3.07
2022-10-23T15:00:01.153Z,1.70
2022-10-23T15:02:27.848Z,4.87
2022-10-23T15:04:54.553Z,1.90
2022-10-23T15:07:21.585Z,2.10
2022-10-23T15:09:48.308Z,2.27
2022-10-23T15:12:14.895Z,2.77
2022-10-23T15:14:41.525Z,2.10
2022-10-23T15:17:09.775Z,2.70
2022-10-23T15:19:39.737Z,3.50
2022-10-23T15:22:06.349Z,2.23
2022-10-23T15:24:33.018Z,2.10
2022-10-23T15:27:00.331Z,2.37
2022-10-23T15:29:27.064Z,2.07
2022-10-23T15:31:57.027Z,2.30
2022-10-23T15:34:26.161Z,2.43
2022-10-23T15:36:54.254Z,5.10
2022-10-23T15:39:26.465Z,2.20
2022-10-23T15:41:56.148Z,3.13
2022-10-23T15:44:26.030Z,4.13
2022-10-23T15:46:53.188Z,2.77
2022-10-23T15:49:20.269Z,3.70
2022-10-23T15:51:46.965Z,4.70
2022-10-23T15:54:17.071Z,3.33
2022-10-23T15:56:44.463Z,4.60
2022-10-23T15:59:11.543Z,4.77
2022-10-23T16:01:38.698Z,4.40
2022-10-23T16:04:05.709Z,3.80
2022-10-23T16:06:32.467Z,5.90
2022-10-23T16:08:59.417Z,5.70
2022-10-23T16:11:28.899Z,7.67
2022-10-23T16:13:57.618Z,5.17
2022-10-23T16:16:24.428Z,5.57
2022-10-23T16:18:51.265Z,5.47
2022-10-23T16:21:21.255Z,5.67
2022-10-23T16:23:48.677Z,5.93
2022-10-23T16:26:15.445Z,6.30
2022-10-23T16:28:43.888Z,4.60
2022-10-23T16:31:20.060Z,4.40
2022-10-23T16:33:48.742Z,4.67
2022-10-23T16:36:16.224Z,8.57
2022-10-23T16:39:10.760Z,4.70
2022-10-23T16:41:56.253Z,12.73
2022-10-23T16:44:27.191Z,3.83
2022-10-23T16:46:58.512Z,5.23
2022-10-23T16:49:25.188Z,8.60
2022-10-23T16:51:51.807Z,10.47
2022-10-23T16:54:18.527Z,5.47
2022-10-23T16:56:45.303Z,5.60
2022-10-23T16:59:12.030Z,5.97
2022-10-23T17:01:38.864Z,7.40
2022-10-23T17:04:07.306Z,6.90
2022-10-23T17:06:34.234Z,9.60
2022-10-23T17:09:01.854Z,4.87
2022-10-23T17:11:30.995Z,5.83
2022-10-23T17:14:03.557Z,7.23
2022-10-23T17:16:36.196Z,4.73
2022-10-23T17:19:15.903Z,8.90
2022-10-23T17:21:51.845Z,7.93
2022-10-23T17:24:19.693Z,7.70
2022-10-23T17:26:46.403Z,8.57
2022-10-23T17:29:16.892Z,10.30
2022-10-23T17:31:46.407Z,8.77
2022-10-23T17:34:16.063Z,6.90
2022-10-23T17:36:45.581Z,11.53
2022-10-23T17:39:14.984Z,7.93
2022-10-23T17:41:42.423Z,9.10
2022-10-23T17:44:09.110Z,9.37
2022-10-23T17:46:35.972Z,10.03
2022-10-23T17:49:04.161Z,7.10
2022-10-23T17:51:33.070Z,8.53
2022-10-23T17:54:03.908Z,7.73
2022-10-23T17:56:32.611Z,5.37
2022-10-23T17:59:02.200Z,7.87
2022-10-23T18:01:29.749Z,8.63
2022-10-23T18:03:59.892Z,8.03
2022-10-23T18:06:29.847Z,12.73
2022-10-23T18:08:56.991Z,7.83
2022-10-23T18:11:36.314Z,8.30
2022-10-23T18:14:04.557Z,8.30
2022-10-23T18:16:31.295Z,12.17
2022-10-23T18:19:00.201Z,7.40
2022-10-23T18:21:27.497Z,10.40
2022-10-23T18:23:54.689Z,10.30
2022-10-23T18:26:27.267Z,7.17
2022-10-23T18:28:59.073Z,8.17
2022-10-23T18:31:29.599Z,10.83
2022-10-23T18:34:04.329Z,10.13
2022-10-23T18:36:37.577Z,8.77
2022-10-23T18:39:05.879Z,10.20
2022-10-23T18:41:35.363Z,10.47
2022-10-23T18:44:02.572Z,10.77
2022-10-23T18:46:29.179Z,10.73
2022-10-23T18:48:55.808Z,9.70
2022-10-23T18:51:25.514Z,11.13
2022-10-23T18:53:52.474Z,11.50
2022-10-23T18:56:23.088Z,7.00
2022-10-23T18:58:51.264Z,7.90
2022-10-23T19:01:19.390Z,6.70
2022-10-23T19:03:46.524Z,6.70
2022-10-23T19:06:14.808Z,6.87
2022-10-23T19:08:43.356Z,8.17
2022-10-23T19:11:12.236Z,10.70
2022-10-23T19:13:39.608Z,8.93
2022-10-23T19:16:33.065Z,8.40
2022-10-23T19:19:04.142Z,5.87
2022-10-23T19:21:35.370Z,8.03
2022-10-23T19:24:05.820Z,6.30
2022-10-23T19:26:35.870Z,6.13
2022-10-23T19:29:03.045Z,6.30
2022-10-23T19:31:30.403Z,6.73
2022-10-23T19:33:57.094Z,6.70
2022-10-23T19:36:23.833Z,5.73
2022-10-23T19:38:50.822Z,6.07
2022-10-23T19:41:18.837Z,6.47
2022-10-23T19:43:45.621Z,6.00
2022-10-23T19:46:12.549Z,7.77
2022-10-23T19:48:43.623Z,6.17
2022-10-23T19:51:10.720Z,8.00
2022-10-23T19:53:37.502Z,5.70
2022-10-23T19:56:09.851Z,8.43
2022-10-23T19:58:36.569Z,9.13
2022-10-23T20:01:15.937Z,7.37
2022-10-23T20:03:45.484Z,7.90
2022-10-23T20:06:14.743Z,11.67
2022-10-23T20:08:41.790Z,8.50
2022-10-23T20:11:09.582Z,8.23
2022-10-23T20:13:36.747Z,11.63
2022-10-23T20:16:03.974Z,15.60
2022-10-23T20:18:30.706Z,10.87
2022-10-23T20:20:57.418Z,10.23
2022-10-23T20:23:24.106Z,9.43
2022-10-23T20:25:50.827Z,7.40
2022-10-23T20:28:17.540Z,8.63
2022-10-23T20:30:45.994Z,8.40
2022-10-23T20:33:12.675Z,13.70
2022-10-23T20:35:41.684Z,9.53
2022-10-23T20:38:08.748Z,7.53
2022-10-23T20:40:35.778Z,7.40
2022-10-23T20:43:02.427Z,7.07
2022-10-23T20:45:29.143Z,13.73
2022-10-23T20:47:55.914Z,11.53
2022-10-23T20:50:23.827Z,6.80
2022-10-23T20:52:51.435Z,8.17
2022-10-23T20:55:18.922Z,7.60
2022-10-23T20:57:46.531Z,6.20
2022-10-23T21:00:16.975Z,6.90
2022-10-23T21:02:47.000Z,10.80
2022-10-23T21:05:15.362Z,10.03
2022-10-23T21:07:42.023Z,8.07
2022-10-23T21:10:08.917Z,14.73
2022-10-23T21:12:35.567Z,6.50
2022-10-23T21:15:02.212Z,8.20
2022-10-23T21:17:35.426Z,9.10
2022-10-23T21:20:02.554Z,7.70
2022-10-23T21:22:29.330Z,10.20
2022-10-23T21:24:57.004Z,8.57
2022-10-23T21:27:23.801Z,6.77
2022-10-23T21:29:50.599Z,6.27
2022-10-23T21:32:19.011Z,7.33
2022-10-23T21:34:45.765Z,8.50
2022-10-23T21:37:14.219Z,6.73
2022-10-23T21:39:43.106Z,8.93
2022-10-23T21:42:10.263Z,8.63
2022-10-23T21:44:36.960Z,7.03
2022-10-23T21:47:03.717Z,11.60
2022-10-23T21:49:30.355Z,8.00
2022-10-23T21:51:57.139Z,8.87
2022-10-23T21:54:23.891Z,7.03
2022-10-23T21:56:53.637Z,7.17
2022-10-23T21:59:24.172Z,7.50
2022-10-23T22:01:51.808Z,6.80
2022-10-23T22:04:19.697Z,7.40
2022-10-23T22:06:47.923Z,8.07
2022-10-23T22:09:19.387Z,10.90
2022-10-23T22:11:48.315Z,10.03
2022-10-23T22:14:14.942Z,9.60
2022-10-23T22:16:42.251Z,8.90
2022-10-23T22:19:12.572Z,9.13
2022-10-23T22:21:39.985Z,8.03
2022-10-23T22:24:07.224Z,9.93
2022-10-23T22:26:37.466Z,9.00
2022-10-23T22:29:10.000Z,8.80
2022-10-23T22:31:38.208Z,8.43
2022-10-23T22:34:18.677Z,7.83
2022-10-23T22:36:55.523Z,7.53
2022-10-23T22:39:23.055Z,7.40
2022-10-23T22:41:50.425Z,8.50
2022-10-23T22:44:17.110Z,8.03
2022-10-23T22:46:44.537Z,8.30
2022-10-23T22:49:11.441Z,6.30
2022-10-23T22:51:39.813Z,6.17
2022-10-23T22:54:06.952Z,6.53
2022-10-23T22:56:33.977Z,7.77
2022-10-23T22:59:00.772Z,5.57
2022-10-23T23:01:32.134Z,5.97
2022-10-23T23:04:08.737Z,8.40
2022-10-23T23:06:46.155Z,9.40
2022-10-23T23:09:17.784Z,5.87
2022-10-23T23:11:51.549Z,5.53
2022-10-23T23:14:23.125Z,6.57
2022-10-23T23:16:51.787Z,4.20
2022-10-23T23:19:18.441Z,4.40
2022-10-23T23:21:45.101Z,4.90
2022-10-23T23:24:12.258Z,3.73
2022-10-23T23:26:39.031Z,3.33
2022-10-23T23:29:05.746Z,4.20
2022-10-23T23:31:32.398Z,3.73
2022-10-23T23:33:59.266Z,4.23
2022-10-23T23:36:27.464Z,3.87
2022-10-23T23:38:56.404Z,5.00
2022-10-23T23:41:23.398Z,4.93
2022-10-23T23:43:50.448Z,7.70
2022-10-23T23:46:18.153Z,5.23
2022-10-23T23:48:48.065Z,4.43
2022-10-23T23:51:23.970Z,3.93
2022-10-23T23:53:51.208Z,4.67
2022-10-23T23:56:19.379Z,9.17
2022-10-23T23:58:46.030Z,5.37
